createdAt,value
2023-06-19T00:00:40.892Z,99757.41
2023-06-19T00:03:10.693Z,99764.09
2023-06-19T00:05:39.941Z,99761.78
2023-06-19T00:08:09.066Z,99771.84
2023-06-19T00:10:38.107Z,99770.94
2023-06-19T00:13:07.246Z,99767.16
2023-06-19T00:15:37.671Z,99764.03
2023-06-19T00:18:08.301Z,99772.31
2023-06-19T00:20:37.592Z,99776.88
2023-06-19T00:23:07.651Z,99776.53
2023-06-19T00:25:36.657Z,99773.00
2023-06-19T00:28:15.067Z,99775.16
2023-06-19T00:30:46.239Z,99773.78
2023-06-19T00:33:17.415Z,99776.66
2023-06-19T00:35:47.582Z,99767.50
2023-06-19T00:38:16.565Z,99764.69
2023-06-19T00:40:45.726Z,99776.03
2023-06-19T00:43:15.649Z,99770.53
2023-06-19T00:45:46.135Z,99780.97
2023-06-19T00:48:15.402Z,99771.97
2023-06-19T00:50:45.312Z,99772.19
2023-06-19T00:53:15.540Z,99776.34
2023-06-19T00:55:45.288Z,99777.72
2023-06-19T00:58:14.432Z,99776.84
2023-06-19T01:00:49.723Z,99777.13
2023-06-19T01:03:28.640Z,99784.09
2023-06-19T01:06:01.081Z,99782.16
2023-06-19T01:08:45.414Z,99772.41
2023-06-19T01:11:26.794Z,99780.59
2023-06-19T01:14:01.356Z,99773.66
2023-06-19T01:16:32.280Z,99772.94
2023-06-19T01:19:03.371Z,99771.06
2023-06-19T01:21:32.880Z,99773.53
2023-06-19T01:24:03.433Z,99784.59
2023-06-19T01:26:32.518Z,99776.59
2023-06-19T01:29:01.725Z,99776.28
2023-06-19T01:31:34.226Z,99778.72
2023-06-19T01:34:05.833Z,99779.38
2023-06-19T01:36:35.492Z,99781.78
2023-06-19T01:39:07.128Z,99781.31
2023-06-19T01:41:37.758Z,99781.44
2023-06-19T01:44:11.086Z,99781.91
2023-06-19T01:46:40.262Z,99780.97
2023-06-19T01:49:10.919Z,99778.59
2023-06-19T01:51:40.169Z,99780.41
2023-06-19T01:54:11.409Z,99787.94
2023-06-19T01:56:40.627Z,99782.88
2023-06-19T01:59:10.090Z,99773.19
2023-06-19T02:01:39.125Z,99776.91
2023-06-19T02:04:08.272Z,99773.06
2023-06-19T02:06:40.094Z,99780.09
2023-06-19T02:09:10.717Z,99777.66
2023-06-19T02:11:41.636Z,99776.94
2023-06-19T02:14:12.337Z,99769.47
2023-06-19T02:16:44.874Z,99772.88
2023-06-19T02:19:14.402Z,99772.78
2023-06-19T02:21:43.630Z,99773.25
2023-06-19T02:24:14.280Z,99768.88
2023-06-19T02:26:45.213Z,99767.91
2023-06-19T02:29:14.222Z,99759.78
2023-06-19T02:31:43.677Z,99755.03
2023-06-19T02:34:12.989Z,99759.47
2023-06-19T02:36:42.288Z,99760.72
2023-06-19T02:39:14.258Z,99765.44
2023-06-19T02:41:47.118Z,99768.09
2023-06-19T02:44:16.298Z,99774.13
2023-06-19T02:46:46.714Z,99769.75
2023-06-19T02:49:15.966Z,99770.84
2023-06-19T02:51:45.809Z,99764.75
2023-06-19T02:54:16.332Z,99764.97
2023-06-19T02:56:47.845Z,99755.69
2023-06-19T02:59:20.637Z,99765.34
2023-06-19T03:01:49.702Z,99762.34
2023-06-19T03:04:19.647Z,99764.84
2023-06-19T03:06:48.793Z,99760.09
2023-06-19T03:09:19.248Z,99763.75
2023-06-19T03:11:48.312Z,99756.13
2023-06-19T03:14:17.567Z,99761.78
2023-06-19T03:16:46.796Z,99761.06
2023-06-19T03:19:15.961Z,99765.97
2023-06-19T03:21:45.088Z,99767.56
2023-06-19T03:24:15.590Z,99772.22
2023-06-19T03:26:46.955Z,99770.09
2023-06-19T03:29:16.482Z,99775.50
2023-06-19T03:31:55.565Z,99764.47
2023-06-19T03:34:29.213Z,99771.53
2023-06-19T03:37:00.662Z,99770.59
2023-06-19T03:39:30.001Z,99768.09
2023-06-19T03:42:08.399Z,99776.56
2023-06-19T03:44:38.004Z,99772.53
2023-06-19T03:47:08.083Z,99775.03
2023-06-19T03:49:37.228Z,99766.28
2023-06-19T03:52:07.736Z,99774.69
2023-06-19T03:54:37.628Z,99768.00
2023-06-19T03:57:09.740Z,99770.38
2023-06-19T03:59:39.071Z,99776.78
2023-06-19T04:02:08.574Z,99772.66
2023-06-19T04:04:39.146Z,99777.19
2023-06-19T04:07:08.516Z,99772.03
2023-06-19T04:09:37.566Z,99774.75
2023-06-19T04:12:08.710Z,99768.97
2023-06-19T04:14:37.806Z,99762.50
2023-06-19T04:17:07.465Z,99764.13
2023-06-19T04:19:36.565Z,99771.25
2023-06-19T04:22:08.113Z,99765.81
2023-06-19T04:24:37.955Z,99759.59
2023-06-19T04:27:09.945Z,99763.38
2023-06-19T04:29:39.488Z,99768.53
2023-06-19T04:32:13.154Z,99768.63
2023-06-19T04:34:47.346Z,99773.66
2023-06-19T04:37:20.246Z,99778.78
2023-06-19T04:40:08.949Z,99776.31
2023-06-19T04:42:58.061Z,99779.94
2023-06-19T04:45:27.284Z,99773.84
2023-06-19T04:47:56.408Z,99777.19
2023-06-19T04:50:42.793Z,99774.09
2023-06-19T04:53:29.119Z,99770.09
2023-06-19T04:56:00.799Z,99775.34
2023-06-19T04:58:33.222Z,99768.59
2023-06-19T05:01:02.425Z,99775.31
2023-06-19T05:03:31.523Z,99770.38
2023-06-19T05:06:00.691Z,99776.03
2023-06-19T05:08:29.757Z,99773.06
2023-06-19T05:10:58.988Z,99778.25
2023-06-19T05:13:47.986Z,99778.16
2023-06-19T05:16:17.809Z,99774.97
2023-06-19T05:18:46.911Z,99780.41
2023-06-19T05:21:15.937Z,99777.13
2023-06-19T05:23:45.019Z,99777.78
2023-06-19T05:26:15.139Z,99776.78
2023-06-19T05:28:44.164Z,99780.91
2023-06-19T05:31:14.688Z,99777.38
2023-06-19T05:33:43.883Z,99774.19
2023-06-19T05:36:13.075Z,99769.75
2023-06-19T05:38:42.493Z,99771.88
2023-06-19T05:41:12.075Z,99771.50
2023-06-19T05:43:41.274Z,99768.19
2023-06-19T05:46:10.918Z,99771.06
2023-06-19T05:48:41.604Z,99763.81
2023-06-19T05:51:10.747Z,99763.16
2023-06-19T05:53:40.201Z,99759.19
2023-06-19T05:56:09.236Z,99761.25
2023-06-19T05:58:38.401Z,99760.69
2023-06-19T06:01:26.357Z,99761.34
2023-06-19T06:03:57.572Z,99760.75
2023-06-19T06:06:27.341Z,99752.34
2023-06-19T06:08:57.026Z,99753.91
2023-06-19T06:11:44.599Z,99749.25
2023-06-19T06:14:13.778Z,99755.06
2023-06-19T06:16:42.971Z,99764.31
2023-06-19T06:19:13.595Z,99761.50
2023-06-19T06:22:01.589Z,99754.81
2023-06-19T06:25:06.385Z,99760.25
2023-06-19T06:27:35.560Z,99759.53
2023-06-19T06:30:24.240Z,99757.63
2023-06-19T06:33:12.065Z,99752.47
2023-06-19T06:35:42.675Z,99757.22
2023-06-19T06:38:12.397Z,99762.41
2023-06-19T06:40:42.854Z,99762.00
2023-06-19T06:43:12.348Z,99754.06
2023-06-19T06:46:56.874Z,99740.53
2023-06-19T06:49:25.943Z,99751.81
2023-06-19T06:52:32.429Z,99743.38
2023-06-19T06:55:01.719Z,99747.31
2023-06-19T06:57:32.925Z,99735.63
2023-06-19T07:00:01.938Z,99742.44
2023-06-19T07:02:35.723Z,99735.81
2023-06-19T07:05:05.070Z,99741.19
2023-06-19T07:07:35.773Z,99739.13
2023-06-19T07:10:05.233Z,99732.50
2023-06-19T07:12:35.489Z,99736.97
2023-06-19T07:15:04.836Z,99733.94
2023-06-19T07:17:52.820Z,99729.66
2023-06-19T07:20:22.279Z,99720.06
2023-06-19T07:23:11.906Z,99718.16
2023-06-19T07:25:41.225Z,99722.09
2023-06-19T07:28:10.661Z,99718.78
2023-06-19T07:30:39.871Z,99724.50
2023-06-19T07:33:09.459Z,99706.34
2023-06-19T07:35:38.686Z,99713.78
2023-06-19T07:38:07.775Z,99703.97
2023-06-19T07:40:38.246Z,99710.91
2023-06-19T07:43:07.928Z,99704.50
2023-06-19T07:45:37.815Z,99701.41
2023-06-19T07:48:07.426Z,99702.88
2023-06-19T07:50:36.512Z,99701.81
2023-06-19T07:53:05.640Z,99701.56
2023-06-19T07:55:36.361Z,99700.72
2023-06-19T07:58:06.917Z,99691.34
2023-06-19T08:00:36.698Z,99692.53
2023-06-19T08:03:06.095Z,99693.28
2023-06-19T08:05:35.286Z,99690.25
2023-06-19T08:08:04.512Z,99698.34
2023-06-19T08:10:34.217Z,99710.50
2023-06-19T08:13:05.725Z,99706.50
2023-06-19T08:15:36.304Z,99706.34
2023-06-19T08:18:05.812Z,99701.00
2023-06-19T08:20:35.052Z,99692.25
2023-06-19T08:23:05.856Z,99689.81
2023-06-19T08:25:36.360Z,99701.31
2023-06-19T08:28:06.053Z,99690.31
2023-06-19T08:30:36.567Z,99686.56
2023-06-19T08:33:05.843Z,99692.94
2023-06-19T08:36:12.327Z,99694.22
2023-06-19T08:38:41.737Z,99700.44
2023-06-19T08:41:29.503Z,99682.44
2023-06-19T08:43:59.289Z,99677.88
2023-06-19T08:46:30.302Z,99674.03
2023-06-19T08:49:35.688Z,99675.13
2023-06-19T08:52:06.009Z,99678.34
2023-06-19T08:54:35.382Z,99671.94
2023-06-19T08:57:05.159Z,99678.34
2023-06-19T08:59:53.282Z,99665.56
2023-06-19T09:02:42.519Z,99663.16
2023-06-19T09:05:30.680Z,99658.44
2023-06-19T09:08:19.457Z,99664.47
2023-06-19T09:10:59.499Z,99672.47
2023-06-19T09:13:29.949Z,99667.91
2023-06-19T09:16:17.678Z,99661.34
2023-06-19T09:19:07.241Z,99656.94
2023-06-19T09:22:13.288Z,99654.50
2023-06-19T09:25:02.573Z,99653.91
2023-06-19T09:27:52.317Z,99657.41
2023-06-19T09:30:21.910Z,99654.09
2023-06-19T09:32:51.624Z,99658.75
2023-06-19T09:35:22.276Z,99653.06
2023-06-19T09:37:54.051Z,99652.16
2023-06-19T09:40:23.969Z,99647.88
2023-06-19T09:42:58.959Z,99658.63
2023-06-19T09:45:50.745Z,99654.22
2023-06-19T09:48:22.899Z,99650.19
2023-06-19T09:51:20.295Z,99650.06
2023-06-19T09:53:52.561Z,99651.47
2023-06-19T09:56:40.284Z,99639.03
2023-06-19T09:59:10.872Z,99635.16
2023-06-19T10:01:41.599Z,99630.16
2023-06-19T10:04:29.049Z,99625.72
2023-06-19T10:06:59.649Z,99627.31
2023-06-19T10:09:35.152Z,99635.47
2023-06-19T10:12:32.876Z,99629.00
2023-06-19T10:15:11.318Z,99616.63
2023-06-19T10:17:44.883Z,99621.09
2023-06-19T10:20:46.786Z,99613.47
2023-06-19T10:23:37.544Z,99605.03
2023-06-19T10:26:34.274Z,99613.06
2023-06-19T10:29:05.628Z,99619.19
2023-06-19T10:31:34.955Z,99614.97
2023-06-19T10:34:22.756Z,99608.09
2023-06-19T10:36:52.077Z,99606.06
2023-06-19T10:39:40.797Z,99613.91
2023-06-19T10:42:28.885Z,99624.69
2023-06-19T10:45:04.676Z,99612.63
2023-06-19T10:47:35.204Z,99607.50
2023-06-19T10:50:24.496Z,99611.94
2023-06-19T10:52:56.324Z,99616.56
2023-06-19T10:55:28.093Z,99612.72
2023-06-19T10:57:57.198Z,99606.06
2023-06-19T11:00:44.671Z,99594.84
2023-06-19T11:03:32.298Z,99601.66
2023-06-19T11:06:01.625Z,99599.75
2023-06-19T11:08:53.669Z,99593.28
2023-06-19T11:11:24.362Z,99589.66
2023-06-19T11:13:53.516Z,99582.16
2023-06-19T11:16:40.071Z,99593.81
2023-06-19T11:19:10.270Z,99581.03
2023-06-19T11:21:40.443Z,99583.69
2023-06-19T11:24:32.236Z,99574.13
2023-06-19T11:27:20.307Z,99580.81
2023-06-19T11:29:49.588Z,99592.41
2023-06-19T11:32:24.200Z,99579.91
2023-06-19T11:35:35.415Z,99571.16
2023-06-19T11:38:05.692Z,99571.28
2023-06-19T11:40:42.354Z,99576.75
2023-06-19T11:43:13.190Z,99561.28
2023-06-19T11:45:50.909Z,99563.94
2023-06-19T11:48:25.598Z,99556.88
2023-06-19T11:50:56.831Z,99560.31
2023-06-19T11:53:46.333Z,99561.91
2023-06-19T11:56:35.314Z,99557.09
2023-06-19T11:59:06.710Z,99555.97
2023-06-19T12:01:37.560Z,99557.50
2023-06-19T12:04:07.142Z,99542.91
2023-06-19T12:06:55.044Z,99540.47
2023-06-19T12:09:24.389Z,99540.13
2023-06-19T12:12:13.094Z,99538.81
2023-06-19T12:14:43.810Z,99531.25
2023-06-19T12:17:13.278Z,99526.38
2023-06-19T12:20:01.092Z,99524.66
2023-06-19T12:22:33.329Z,99535.84
2023-06-19T12:25:20.446Z,99544.06
2023-06-19T12:28:09.551Z,99530.66
2023-06-19T12:31:17.357Z,99530.50
2023-06-19T12:33:48.732Z,99527.81
2023-06-19T12:36:36.661Z,99536.31
2023-06-19T12:39:24.496Z,99527.38
2023-06-19T12:42:13.206Z,99531.25
2023-06-19T12:45:00.133Z,99522.25
2023-06-19T12:47:30.849Z,99517.34
2023-06-19T12:50:00.081Z,99512.06
2023-06-19T12:52:29.535Z,99516.19
2023-06-19T12:55:01.063Z,99508.97
2023-06-19T12:58:24.529Z,99507.53
2023-06-19T13:00:53.912Z,99494.50
2023-06-19T13:03:25.252Z,99501.13
2023-06-19T13:05:55.402Z,99497.84
2023-06-19T13:08:41.871Z,99502.63
2023-06-19T13:11:11.047Z,99487.47
2023-06-19T13:13:40.498Z,99490.69
2023-06-19T13:16:44.884Z,99498.69
2023-06-19T13:19:17.826Z,99497.50
2023-06-19T13:22:06.101Z,99492.69
2023-06-19T13:24:36.566Z,99487.34
2023-06-19T13:27:24.323Z,99491.28
2023-06-19T13:29:53.731Z,99483.81
2023-06-19T13:32:23.189Z,99479.97
2023-06-19T13:34:53.848Z,99492.75
2023-06-19T13:37:22.954Z,99471.88
2023-06-19T13:39:52.374Z,99475.81
2023-06-19T13:42:21.551Z,99475.13
2023-06-19T13:44:51.499Z,99478.38
2023-06-19T13:47:39.688Z,99467.97
2023-06-19T13:50:13.513Z,99471.00
2023-06-19T13:52:42.866Z,99465.56
2023-06-19T13:55:11.978Z,99461.84
2023-06-19T13:57:41.565Z,99466.16
2023-06-19T14:00:12.861Z,99471.34
2023-06-19T14:03:21.046Z,99454.44
2023-06-19T14:05:51.879Z,99456.78
2023-06-19T14:08:21.391Z,99452.53
2023-06-19T14:11:10.662Z,99456.34
2023-06-19T14:13:40.000Z,99451.13
2023-06-19T14:16:09.660Z,99443.91
2023-06-19T14:18:57.957Z,99450.72
2023-06-19T14:21:47.178Z,99444.59
2023-06-19T14:24:17.697Z,99446.94
2023-06-19T14:27:05.860Z,99444.69
2023-06-19T14:29:35.412Z,99446.81
2023-06-19T14:32:04.910Z,99432.88
2023-06-19T14:34:34.125Z,99435.41
2023-06-19T14:37:23.586Z,99431.75
2023-06-19T14:39:53.105Z,99430.78
2023-06-19T14:42:40.764Z,99428.38
2023-06-19T14:45:28.756Z,99426.75
2023-06-19T14:47:58.006Z,99427.94
2023-06-19T14:51:02.865Z,99434.72
2023-06-19T14:53:33.824Z,99420.13
2023-06-19T14:56:03.704Z,99417.66
2023-06-19T14:58:50.070Z,99428.25
2023-06-19T15:01:21.915Z,99421.06
2023-06-19T15:03:51.212Z,99419.03
2023-06-19T15:06:20.463Z,99416.31
2023-06-19T15:09:10.095Z,99422.13
2023-06-19T15:11:39.609Z,99414.84
2023-06-19T15:14:08.835Z,99413.75
2023-06-19T15:16:56.376Z,99405.19
2023-06-19T15:19:25.645Z,99410.31
2023-06-19T15:21:55.112Z,99406.00
2023-06-19T15:24:25.793Z,99403.56
2023-06-19T15:27:13.441Z,99405.88
2023-06-19T15:29:42.829Z,99398.69
2023-06-19T15:32:29.489Z,99403.13
2023-06-19T15:35:35.534Z,99403.41
2023-06-19T15:38:04.641Z,99401.94
2023-06-19T15:41:12.369Z,99404.59
2023-06-19T15:43:41.634Z,99402.06
2023-06-19T15:46:47.737Z,99398.88
2023-06-19T15:49:18.921Z,99401.00
2023-06-19T15:51:52.354Z,99408.28
2023-06-19T15:54:40.745Z,99422.88
2023-06-19T15:57:13.619Z,99406.06
2023-06-19T15:59:42.946Z,99412.63
2023-06-19T16:02:30.880Z,99404.78
2023-06-19T16:05:17.374Z,99418.41
2023-06-19T16:08:05.540Z,99414.25
2023-06-19T16:10:53.220Z,99414.50
2023-06-19T16:13:23.781Z,99409.34
2023-06-19T16:15:52.857Z,99416.53
2023-06-19T16:18:22.101Z,99418.88
2023-06-19T16:20:51.638Z,99412.28
2023-06-19T16:23:20.761Z,99421.88
2023-06-19T16:25:49.955Z,99416.84
2023-06-19T16:28:19.107Z,99418.50
2023-06-19T16:30:49.897Z,99419.53
2023-06-19T16:33:19.464Z,99417.94
2023-06-19T16:36:08.982Z,99423.81
2023-06-19T16:38:58.911Z,99422.16
2023-06-19T16:41:28.121Z,99424.75
2023-06-19T16:43:57.226Z,99422.78
2023-06-19T16:46:27.805Z,99426.06
2023-06-19T16:48:58.773Z,99420.41
2023-06-19T16:51:28.041Z,99420.34
2023-06-19T16:53:57.148Z,99415.59
2023-06-19T16:56:26.373Z,99413.88
2023-06-19T16:59:13.251Z,99422.25
2023-06-19T17:02:01.378Z,99420.97
2023-06-19T17:04:48.047Z,99418.88
2023-06-19T17:07:17.179Z,99418.59
2023-06-19T17:10:04.749Z,99417.69
2023-06-19T17:12:53.437Z,99412.81
2023-06-19T17:15:22.670Z,99415.88
2023-06-19T17:17:53.471Z,99420.31
2023-06-19T17:20:22.751Z,99414.53
2023-06-19T17:22:52.137Z,99413.94
2023-06-19T17:25:21.636Z,99415.22
2023-06-19T17:28:09.010Z,99417.81
2023-06-19T17:30:39.957Z,99420.22
2023-06-19T17:33:11.981Z,99420.44
2023-06-19T17:35:41.136Z,99426.06
2023-06-19T17:38:10.416Z,99422.00
2023-06-19T17:40:58.273Z,99424.63
2023-06-19T17:44:04.722Z,99429.38
2023-06-19T17:46:43.250Z,99422.97
2023-06-19T17:49:31.711Z,99430.41
2023-06-19T17:52:20.695Z,99438.91
2023-06-19T17:54:52.010Z,99429.09
2023-06-19T17:57:22.946Z,99441.06
2023-06-19T17:59:53.292Z,99429.53
2023-06-19T18:02:23.863Z,99438.66
2023-06-19T18:05:13.300Z,99439.34
2023-06-19T18:07:42.893Z,99444.69
2023-06-19T18:10:30.503Z,99448.31
2023-06-19T18:13:35.848Z,99447.88
2023-06-19T18:16:11.205Z,99446.03
2023-06-19T18:19:01.683Z,99451.25
2023-06-19T18:21:50.827Z,99459.59
2023-06-19T18:24:56.301Z,99451.19
2023-06-19T18:27:25.502Z,99456.38
2023-06-19T18:30:15.822Z,99459.59
2023-06-19T18:32:44.985Z,99464.03
2023-06-19T18:35:50.030Z,99461.72
2023-06-19T18:38:20.583Z,99463.03
2023-06-19T18:40:50.066Z,99466.31
2023-06-19T18:43:19.135Z,99459.66
2023-06-19T18:45:48.528Z,99458.84
2023-06-19T18:48:18.077Z,99455.13
2023-06-19T18:51:42.874Z,99450.66
2023-06-19T18:54:31.627Z,99458.97
2023-06-19T18:57:19.378Z,99460.59
2023-06-19T19:00:07.299Z,99456.34
2023-06-19T19:02:54.823Z,99463.03
2023-06-19T19:06:00.970Z,99463.03
2023-06-19T19:08:30.179Z,99459.25
2023-06-19T19:11:00.826Z,99460.63
2023-06-19T19:13:30.232Z,99453.50
2023-06-19T19:15:59.424Z,99452.69
2023-06-19T19:18:28.686Z,99450.06
2023-06-19T19:21:54.217Z,99453.34
2023-06-19T19:25:00.480Z,99449.09
2023-06-19T19:27:34.088Z,99444.47
2023-06-19T19:30:23.016Z,99452.34
2023-06-19T19:32:52.650Z,99454.44
2023-06-19T19:35:22.770Z,99448.25
2023-06-19T19:37:51.957Z,99451.16
2023-06-19T19:40:21.420Z,99454.09
2023-06-19T19:43:10.538Z,99449.72
2023-06-19T19:45:39.813Z,99448.25
2023-06-19T19:48:09.885Z,99448.63
2023-06-19T19:50:58.129Z,99447.53
2023-06-19T19:53:27.316Z,99441.84
2023-06-19T19:55:56.593Z,99439.41
2023-06-19T19:58:29.395Z,99432.69
2023-06-19T20:01:17.253Z,99431.41
2023-06-19T20:03:47.125Z,99438.13
2023-06-19T20:06:36.608Z,99438.00
2023-06-19T20:09:23.221Z,99436.47
2023-06-19T20:11:52.461Z,99428.03
2023-06-19T20:14:41.515Z,99429.91
2023-06-19T20:17:11.238Z,99434.28
2023-06-19T20:19:40.523Z,99427.22
2023-06-19T20:22:09.621Z,99432.28
2023-06-19T20:24:39.043Z,99434.00
2023-06-19T20:27:09.057Z,99428.81
2023-06-19T20:29:38.465Z,99422.66
2023-06-19T20:32:45.203Z,99421.50
2023-06-19T20:35:14.242Z,99416.16
2023-06-19T20:37:43.307Z,99417.72
2023-06-19T20:40:12.783Z,99417.53
2023-06-19T20:42:42.065Z,99409.47
2023-06-19T20:45:12.502Z,99417.44
2023-06-19T20:48:20.630Z,99416.53
2023-06-19T20:50:51.439Z,99423.44
2023-06-19T20:53:20.602Z,99420.38
2023-06-19T20:55:49.737Z,99414.75
2023-06-19T20:58:18.865Z,99421.91
2023-06-19T21:00:48.312Z,99424.59
2023-06-19T21:03:20.731Z,99421.16
2023-06-19T21:05:50.150Z,99425.63
2023-06-19T21:08:19.251Z,99424.72
2023-06-19T21:10:48.379Z,99433.41
2023-06-19T21:13:22.341Z,99427.16
2023-06-19T21:15:52.034Z,99423.44
2023-06-19T21:18:22.536Z,99421.53
2023-06-19T21:20:56.448Z,99431.22
2023-06-19T21:23:25.847Z,99426.59
2023-06-19T21:25:55.129Z,99426.16
2023-06-19T21:28:24.337Z,99422.16
2023-06-19T21:30:53.393Z,99424.16
2023-06-19T21:33:25.706Z,99422.25
2023-06-19T21:35:54.890Z,99423.16
2023-06-19T21:38:25.613Z,99421.44
2023-06-19T21:40:54.720Z,99419.81
2023-06-19T21:43:23.747Z,99419.97
2023-06-19T21:45:53.149Z,99414.91
2023-06-19T21:48:25.209Z,99417.88
2023-06-19T21:50:54.622Z,99409.97
2023-06-19T21:53:24.056Z,99415.25
2023-06-19T21:55:53.172Z,99417.22
2023-06-19T21:58:23.269Z,99413.63
2023-06-19T22:00:52.393Z,99413.25
2023-06-19T22:03:21.589Z,99404.03
2023-06-19T22:05:52.057Z,99413.63
2023-06-19T22:08:33.761Z,99403.84
2023-06-19T22:11:07.109Z,99409.41
2023-06-19T22:13:36.348Z,99403.13
2023-06-19T22:16:05.841Z,99404.22
2023-06-19T22:18:35.005Z,99399.34
2023-06-19T22:21:05.499Z,99400.16
2023-06-19T22:23:34.485Z,99408.44
2023-06-19T22:26:03.547Z,99400.00
2023-06-19T22:28:32.537Z,99397.66
2023-06-19T22:31:01.641Z,99395.25
2023-06-19T22:33:30.813Z,99392.72
2023-06-19T22:35:59.949Z,99398.19
2023-06-19T22:38:30.539Z,99401.66
2023-06-19T22:40:59.803Z,99399.47
2023-06-19T22:43:28.884Z,99398.38
2023-06-19T22:45:57.920Z,99392.22
2023-06-19T22:48:27.759Z,99395.84
2023-06-19T22:50:59.283Z,99389.72
2023-06-19T22:53:29.858Z,99385.09
2023-06-19T22:55:59.016Z,99379.53
2023-06-19T22:58:28.044Z,99377.94
2023-06-19T23:00:57.645Z,99382.81
2023-06-19T23:03:28.937Z,99373.84
2023-06-19T23:05:58.008Z,99384.53
2023-06-19T23:08:27.515Z,99373.44
2023-06-19T23:10:57.869Z,99371.28
2023-06-19T23:13:26.873Z,99370.47
2023-06-19T23:15:57.829Z,99367.03
2023-06-19T23:18:27.047Z,99364.81
2023-06-19T23:20:56.089Z,99370.41
2023-06-19T23:23:25.164Z,99367.28
2023-06-19T23:25:54.245Z,99360.94
2023-06-19T23:28:25.490Z,99361.69
2023-06-19T23:30:54.528Z,99366.19
2023-06-19T23:33:24.443Z,99367.91
2023-06-19T23:35:53.506Z,99360.69
2023-06-19T23:38:22.595Z,99356.66
2023-06-19T23:40:51.753Z,99358.25
2023-06-19T23:43:21.036Z,99354.94
2023-06-19T23:45:52.796Z,99356.03
2023-06-19T23:48:21.940Z,99356.22
2023-06-19T23:50:51.133Z,99362.19
2023-06-19T23:53:20.380Z,99365.44
2023-06-19T23:55:49.557Z,99361.09
2023-06-19T23:58:19.323Z,99353.75
